sensor_id;sensor_type;location;lat;lon;timestamp;P1;durP1;ratioP1;P2;durP2;ratioP2
55913;SDS011;58179;48.776;9.124;2022-12-15T00:00:57;40.15;;;20.45;;
55913;SDS011;58179;48.776;9.124;2022-12-15T00:03:42;53.77;;;26.97;;
55913;SDS011;58179;48.776;9.124;2022-12-15T00:06:27;48.90;;;26.20;;
55913;SDS011;58179;48.776;9.124;2022-12-15T00:09:12;51.80;;;26.07;;
55913;SDS011;58179;48.776;9.124;2022-12-15T00:11:56;44.45;;;23.45;;
55913;SDS011;58179;48.776;9.124;2022-12-15T00:14:42;35.25;;;19.90;;
55913;SDS011;58179;48.776;9.124;2022-12-15T00:17:27;30.30;;;16.98;;
55913;SDS011;58179;48.776;9.124;2022-12-15T00:20:11;31.35;;;17.17;;
55913;SDS011;58179;48.776;9.124;2022-12-15T00:22:56;42.40;;;22.05;;
55913;SDS011;58179;48.776;9.124;2022-12-15T00:25:41;40.00;;;20.88;;
55913;SDS011;58179;48.776;9.124;2022-12-15T00:28:26;35.95;;;18.98;;
55913;SDS011;58179;48.776;9.124;2022-12-15T00:31:12;29.95;;;17.08;;
55913;SDS011;58179;48.776;9.124;2022-12-15T00:33:56;24.73;;;14.35;;
55913;SDS011;58179;48.776;9.124;2022-12-15T00:36:41;24.33;;;13.83;;
55913;SDS011;58179;48.776;9.124;2022-12-15T00:39:25;20.73;;;12.60;;
55913;SDS011;58179;48.776;9.124;2022-12-15T00:41:51;18.58;;;11.20;;
55913;SDS011;58179;48.776;9.124;2022-12-15T00:44:17;17.30;;;10.57;;
55913;SDS011;58179;48.776;9.124;2022-12-15T00:46:46;15.68;;;9.18;;
55913;SDS011;58179;48.776;9.124;2022-12-15T00:49:18;17.25;;;10.70;;
55913;SDS011;58179;48.776;9.124;2022-12-15T00:52:02;17.77;;;10.93;;
55913;SDS011;58179;48.776;9.124;2022-12-15T00:54:47;21.83;;;12.65;;
55913;SDS011;58179;48.776;9.124;2022-12-15T00:57:32;23.58;;;13.20;;
55913;SDS011;58179;48.776;9.124;2022-12-15T01:00:17;21.58;;;11.98;;
55913;SDS011;58179;48.776;9.124;2022-12-15T01:03:08;20.60;;;12.10;;
55913;SDS011;58179;48.776;9.124;2022-12-15T01:05:55;23.80;;;13.90;;
55913;SDS011;58179;48.776;9.124;2022-12-15T01:08:39;26.17;;;14.93;;
55913;SDS011;58179;48.776;9.124;2022-12-15T01:11:24;26.33;;;15.05;;
55913;SDS011;58179;48.776;9.124;2022-12-15T01:14:08;27.50;;;15.70;;
55913;SDS011;58179;48.776;9.124;2022-12-15T01:16:53;23.13;;;13.07;;
55913;SDS011;58179;48.776;9.124;2022-12-15T01:19:39;24.08;;;13.48;;
55913;SDS011;58179;48.776;9.124;2022-12-15T01:22:23;27.08;;;15.30;;
55913;SDS011;58179;48.776;9.124;2022-12-15T01:24:49;24.87;;;14.03;;
55913;SDS011;58179;48.776;9.124;2022-12-15T01:27:15;23.35;;;13.48;;
55913;SDS011;58179;48.776;9.124;2022-12-15T01:29:41;24.25;;;13.75;;
55913;SDS011;58179;48.776;9.124;2022-12-15T01:32:08;21.40;;;12.53;;
55913;SDS011;58179;48.776;9.124;2022-12-15T01:34:34;17.40;;;10.63;;
55913;SDS011;58179;48.776;9.124;2022-12-15T01:37:01;25.07;;;14.07;;
55913;SDS011;58179;48.776;9.124;2022-12-15T01:39:27;23.30;;;13.50;;
55913;SDS011;58179;48.776;9.124;2022-12-15T01:42:13;20.17;;;11.88;;
55913;SDS011;58179;48.776;9.124;2022-12-15T01:44:39;21.10;;;12.52;;
55913;SDS011;58179;48.776;9.124;2022-12-15T01:47:06;18.52;;;11.00;;
55913;SDS011;58179;48.776;9.124;2022-12-15T01:49:35;16.80;;;9.70;;
55913;SDS011;58179;48.776;9.124;2022-12-15T01:52:02;19.08;;;11.27;;
55913;SDS011;58179;48.776;9.124;2022-12-15T01:54:33;18.40;;;10.95;;
55913;SDS011;58179;48.776;9.124;2022-12-15T01:57:07;19.58;;;11.00;;
55913;SDS011;58179;48.776;9.124;2022-12-15T01:59:40;21.38;;;12.05;;
55913;SDS011;58179;48.776;9.124;2022-12-15T02:02:14;21.70;;;12.20;;
55913;SDS011;58179;48.776;9.124;2022-12-15T02:04:43;19.35;;;11.40;;
55913;SDS011;58179;48.776;9.124;2022-12-15T02:07:11;18.73;;;11.07;;
55913;SDS011;58179;48.776;9.124;2022-12-15T02:09:38;16.60;;;9.88;;
55913;SDS011;58179;48.776;9.124;2022-12-15T02:12:06;13.65;;;8.60;;
55913;SDS011;58179;48.776;9.124;2022-12-15T02:14:46;14.55;;;9.10;;
55913;SDS011;58179;48.776;9.124;2022-12-15T02:17:30;15.40;;;9.63;;
55913;SDS011;58179;48.776;9.124;2022-12-15T02:23:24;20.50;;;11.63;;
55913;SDS011;58179;48.776;9.124;2022-12-15T02:26:21;21.13;;;11.93;;
55913;SDS011;58179;48.776;9.124;2022-12-15T02:29:09;26.35;;;13.57;;
55913;SDS011;58179;48.776;9.124;2022-12-15T02:31:50;24.63;;;13.68;;
55913;SDS011;58179;48.776;9.124;2022-12-15T02:34:24;28.52;;;15.68;;
55913;SDS011;58179;48.776;9.124;2022-12-15T02:36:58;23.85;;;13.13;;
55913;SDS011;58179;48.776;9.124;2022-12-15T02:39:30;23.65;;;13.63;;
55913;SDS011;58179;48.776;9.124;2022-12-15T02:41:55;25.50;;;13.95;;
55913;SDS011;58179;48.776;9.124;2022-12-15T02:44:23;22.70;;;13.18;;
55913;SDS011;58179;48.776;9.124;2022-12-15T02:47:01;25.05;;;14.27;;
55913;SDS011;58179;48.776;9.124;2022-12-15T02:49:45;24.80;;;13.95;;
55913;SDS011;58179;48.776;9.124;2022-12-15T02:52:30;26.53;;;15.37;;
55913;SDS011;58179;48.776;9.124;2022-12-15T02:55:14;27.65;;;15.63;;
55913;SDS011;58179;48.776;9.124;2022-12-15T02:57:47;24.08;;;13.15;;
55913;SDS011;58179;48.776;9.124;2022-12-15T03:00:19;22.15;;;12.32;;
55913;SDS011;58179;48.776;9.124;2022-12-15T03:02:48;18.73;;;12.03;;
55913;SDS011;58179;48.776;9.124;2022-12-15T03:05:17;21.08;;;11.90;;
55913;SDS011;58179;48.776;9.124;2022-12-15T03:07:47;23.40;;;13.55;;
55913;SDS011;58179;48.776;9.124;2022-12-15T03:10:14;23.67;;;13.00;;
55913;SDS011;58179;48.776;9.124;2022-12-15T03:12:41;21.08;;;11.90;;
55913;SDS011;58179;48.776;9.124;2022-12-15T03:15:07;18.67;;;10.80;;
55913;SDS011;58179;48.776;9.124;2022-12-15T03:17:33;16.60;;;9.82;;
55913;SDS011;58179;48.776;9.124;2022-12-15T03:20:01;20.83;;;11.90;;
55913;SDS011;58179;48.776;9.124;2022-12-15T03:22:27;18.05;;;10.82;;
55913;SDS011;58179;48.776;9.124;2022-12-15T03:24:53;18.58;;;10.75;;
55913;SDS011;58179;48.776;9.124;2022-12-15T03:27:19;29.08;;;15.52;;
55913;SDS011;58179;48.776;9.124;2022-12-15T03:29:45;38.22;;;19.42;;
55913;SDS011;58179;48.776;9.124;2022-12-15T03:32:10;34.03;;;18.60;;
55913;SDS011;58179;48.776;9.124;2022-12-15T03:34:36;29.08;;;16.13;;
55913;SDS011;58179;48.776;9.124;2022-12-15T03:37:04;30.30;;;16.48;;
55913;SDS011;58179;48.776;9.124;2022-12-15T03:39:30;27.77;;;15.67;;
55913;SDS011;58179;48.776;9.124;2022-12-15T03:41:55;32.00;;;16.38;;
55913;SDS011;58179;48.776;9.124;2022-12-15T03:44:21;29.33;;;15.17;;
55913;SDS011;58179;48.776;9.124;2022-12-15T03:46:47;29.50;;;15.30;;
55913;SDS011;58179;48.776;9.124;2022-12-15T03:49:13;27.67;;;14.73;;
55913;SDS011;58179;48.776;9.124;2022-12-15T03:51:39;26.65;;;14.23;;
55913;SDS011;58179;48.776;9.124;2022-12-15T03:54:06;28.13;;;15.33;;
55913;SDS011;58179;48.776;9.124;2022-12-15T03:56:32;26.30;;;15.23;;
55913;SDS011;58179;48.776;9.124;2022-12-15T03:58:58;24.50;;;14.35;;
55913;SDS011;58179;48.776;9.124;2022-12-15T04:01:25;25.90;;;14.73;;
55913;SDS011;58179;48.776;9.124;2022-12-15T04:03:53;26.77;;;14.07;;
55913;SDS011;58179;48.776;9.124;2022-12-15T04:06:20;22.65;;;12.65;;
55913;SDS011;58179;48.776;9.124;2022-12-15T04:08:46;17.92;;;10.90;;
55913;SDS011;58179;48.776;9.124;2022-12-15T04:11:13;19.38;;;11.00;;
55913;SDS011;58179;48.776;9.124;2022-12-15T04:13:39;25.92;;;13.68;;
55913;SDS011;58179;48.776;9.124;2022-12-15T04:16:05;32.25;;;16.25;;
55913;SDS011;58179;48.776;9.124;2022-12-15T04:18:32;32.92;;;17.50;;
55913;SDS011;58179;48.776;9.124;2022-12-15T04:20:58;31.40;;;17.13;;
55913;SDS011;58179;48.776;9.124;2022-12-15T04:23:24;32.45;;;17.10;;
55913;SDS011;58179;48.776;9.124;2022-12-15T04:25:49;28.83;;;15.73;;
55913;SDS011;58179;48.776;9.124;2022-12-15T04:28:35;26.20;;;14.50;;
55913;SDS011;58179;48.776;9.124;2022-12-15T04:31:21;25.98;;;14.27;;
55913;SDS011;58179;48.776;9.124;2022-12-15T04:34:09;21.00;;;11.35;;
55913;SDS011;58179;48.776;9.124;2022-12-15T04:36:57;21.55;;;12.40;;
55913;SDS011;58179;48.776;9.124;2022-12-15T04:39:44;28.30;;;15.50;;
55913;SDS011;58179;48.776;9.124;2022-12-15T04:42:32;29.60;;;15.57;;
55913;SDS011;58179;48.776;9.124;2022-12-15T04:45:23;25.02;;;13.90;;
55913;SDS011;58179;48.776;9.124;2022-12-15T04:48:08;21.73;;;12.32;;
55913;SDS011;58179;48.776;9.124;2022-12-15T04:50:53;21.67;;;11.70;;
55913;SDS011;58179;48.776;9.124;2022-12-15T04:53:38;23.80;;;13.18;;
55913;SDS011;58179;48.776;9.124;2022-12-15T04:56:24;25.83;;;13.50;;
55913;SDS011;58179;48.776;9.124;2022-12-15T04:59:09;21.08;;;12.65;;
55913;SDS011;58179;48.776;9.124;2022-12-15T05:01:55;23.83;;;13.23;;
55913;SDS011;58179;48.776;9.124;2022-12-15T05:04:40;23.60;;;12.60;;
55913;SDS011;58179;48.776;9.124;2022-12-15T05:07:24;22.90;;;12.52;;
55913;SDS011;58179;48.776;9.124;2022-12-15T05:10:09;23.63;;;12.77;;
55913;SDS011;58179;48.776;9.124;2022-12-15T05:12:53;25.15;;;13.70;;
55913;SDS011;58179;48.776;9.124;2022-12-15T05:15:38;25.92;;;13.23;;
55913;SDS011;58179;48.776;9.124;2022-12-15T05:18:24;27.95;;;14.45;;
55913;SDS011;58179;48.776;9.124;2022-12-15T05:21:08;30.75;;;15.57;;
55913;SDS011;58179;48.776;9.124;2022-12-15T05:23:53;24.25;;;12.65;;
55913;SDS011;58179;48.776;9.124;2022-12-15T05:26:38;23.98;;;12.82;;
55913;SDS011;58179;48.776;9.124;2022-12-15T05:29:22;21.77;;;11.82;;
55913;SDS011;58179;48.776;9.124;2022-12-15T05:32:07;26.65;;;14.27;;
55913;SDS011;58179;48.776;9.124;2022-12-15T05:34:34;28.07;;;14.80;;
55913;SDS011;58179;48.776;9.124;2022-12-15T05:37:02;25.17;;;13.50;;
55913;SDS011;58179;48.776;9.124;2022-12-15T05:39:29;22.92;;;12.55;;
55913;SDS011;58179;48.776;9.124;2022-12-15T05:41:55;21.00;;;11.60;;
55913;SDS011;58179;48.776;9.124;2022-12-15T05:44:22;19.38;;;10.88;;
55913;SDS011;58179;48.776;9.124;2022-12-15T05:46:49;18.38;;;10.77;;
55913;SDS011;58179;48.776;9.124;2022-12-15T05:49:15;23.07;;;12.20;;
55913;SDS011;58179;48.776;9.124;2022-12-15T05:51:44;21.45;;;11.35;;
55913;SDS011;58179;48.776;9.124;2022-12-15T05:54:13;21.58;;;11.35;;
55913;SDS011;58179;48.776;9.124;2022-12-15T05:56:41;22.92;;;11.85;;
55913;SDS011;58179;48.776;9.124;2022-12-15T05:59:07;22.73;;;12.32;;
55913;SDS011;58179;48.776;9.124;2022-12-15T06:01:34;20.75;;;11.82;;
55913;SDS011;58179;48.776;9.124;2022-12-15T06:04:00;31.02;;;15.65;;
55913;SDS011;58179;48.776;9.124;2022-12-15T06:06:26;41.25;;;20.70;;
55913;SDS011;58179;48.776;9.124;2022-12-15T06:08:54;40.97;;;19.83;;
55913;SDS011;58179;48.776;9.124;2022-12-15T06:11:20;34.13;;;17.25;;
55913;SDS011;58179;48.776;9.124;2022-12-15T06:13:47;35.20;;;18.63;;
55913;SDS011;58179;48.776;9.124;2022-12-15T06:16:13;32.40;;;16.30;;
55913;SDS011;58179;48.776;9.124;2022-12-15T06:18:41;36.22;;;17.75;;
55913;SDS011;58179;48.776;9.124;2022-12-15T06:21:10;35.53;;;17.70;;
55913;SDS011;58179;48.776;9.124;2022-12-15T06:23:39;30.45;;;15.48;;
55913;SDS011;58179;48.776;9.124;2022-12-15T06:26:10;30.08;;;15.30;;
55913;SDS011;58179;48.776;9.124;2022-12-15T06:28:39;26.08;;;13.98;;
55913;SDS011;58179;48.776;9.124;2022-12-15T06:31:06;52.10;;;24.20;;
55913;SDS011;58179;48.776;9.124;2022-12-15T06:33:34;50.83;;;24.73;;
55913;SDS011;58179;48.776;9.124;2022-12-15T06:36:01;37.70;;;19.37;;
55913;SDS011;58179;48.776;9.124;2022-12-15T06:38:29;36.65;;;18.77;;
55913;SDS011;58179;48.776;9.124;2022-12-15T06:40:56;30.88;;;16.38;;
55913;SDS011;58179;48.776;9.124;2022-12-15T06:43:24;24.50;;;13.75;;
55913;SDS011;58179;48.776;9.124;2022-12-15T06:45:51;24.33;;;12.87;;
55913;SDS011;58179;48.776;9.124;2022-12-15T06:48:17;20.65;;;11.20;;
55913;SDS011;58179;48.776;9.124;2022-12-15T06:50:43;22.52;;;11.77;;
55913;SDS011;58179;48.776;9.124;2022-12-15T06:53:09;42.30;;;20.92;;
55913;SDS011;58179;48.776;9.124;2022-12-15T06:55:35;38.45;;;19.45;;
55913;SDS011;58179;48.776;9.124;2022-12-15T06:58:01;28.75;;;16.08;;
55913;SDS011;58179;48.776;9.124;2022-12-15T07:00:28;24.65;;;13.82;;
55913;SDS011;58179;48.776;9.124;2022-12-15T07:02:54;23.45;;;12.43;;
55913;SDS011;58179;48.776;9.124;2022-12-15T07:05:20;29.20;;;15.27;;
55913;SDS011;58179;48.776;9.124;2022-12-15T07:07:46;25.75;;;13.95;;
55913;SDS011;58179;48.776;9.124;2022-12-15T07:10:12;27.90;;;15.25;;
55913;SDS011;58179;48.776;9.124;2022-12-15T07:12:38;27.13;;;14.80;;
55913;SDS011;58179;48.776;9.124;2022-12-15T07:15:05;28.60;;;14.88;;
55913;SDS011;58179;48.776;9.124;2022-12-15T07:17:33;27.20;;;14.45;;
55913;SDS011;58179;48.776;9.124;2022-12-15T07:19:59;25.98;;;14.50;;
55913;SDS011;58179;48.776;9.124;2022-12-15T07:22:26;33.33;;;16.98;;
55913;SDS011;58179;48.776;9.124;2022-12-15T07:24:52;31.17;;;15.32;;
55913;SDS011;58179;48.776;9.124;2022-12-15T07:27:18;29.40;;;14.68;;
55913;SDS011;58179;48.776;9.124;2022-12-15T07:29:44;59.47;;;27.13;;
55913;SDS011;58179;48.776;9.124;2022-12-15T07:32:10;46.33;;;22.33;;
55913;SDS011;58179;48.776;9.124;2022-12-15T07:34:38;35.47;;;18.15;;
55913;SDS011;58179;48.776;9.124;2022-12-15T07:37:03;32.40;;;16.42;;
55913;SDS011;58179;48.776;9.124;2022-12-15T07:39:29;27.70;;;14.95;;
55913;SDS011;58179;48.776;9.124;2022-12-15T07:41:55;24.37;;;13.67;;
55913;SDS011;58179;48.776;9.124;2022-12-15T07:44:21;28.63;;;14.77;;
55913;SDS011;58179;48.776;9.124;2022-12-15T07:46:47;24.25;;;13.65;;
55913;SDS011;58179;48.776;9.124;2022-12-15T07:49:13;26.77;;;14.13;;
55913;SDS011;58179;48.776;9.124;2022-12-15T07:51:42;26.83;;;13.68;;
55913;SDS011;58179;48.776;9.124;2022-12-15T07:54:09;26.23;;;13.85;;
55913;SDS011;58179;48.776;9.124;2022-12-15T07:56:36;21.63;;;12.00;;
55913;SDS011;58179;48.776;9.124;2022-12-15T07:59:02;22.13;;;12.10;;
55913;SDS011;58179;48.776;9.124;2022-12-15T08:01:28;27.48;;;13.60;;
55913;SDS011;58179;48.776;9.124;2022-12-15T08:03:54;27.53;;;13.70;;
55913;SDS011;58179;48.776;9.124;2022-12-15T08:06:20;26.13;;;13.57;;
55913;SDS011;58179;48.776;9.124;2022-12-15T08:08:47;26.00;;;13.48;;
55913;SDS011;58179;48.776;9.124;2022-12-15T08:11:14;25.33;;;14.32;;
55913;SDS011;58179;48.776;9.124;2022-12-15T08:13:40;26.40;;;13.70;;
55913;SDS011;58179;48.776;9.124;2022-12-15T08:16:08;21.17;;;12.13;;
55913;SDS011;58179;48.776;9.124;2022-12-15T08:18:34;25.52;;;13.05;;
55913;SDS011;58179;48.776;9.124;2022-12-15T08:21:01;24.17;;;13.00;;
55913;SDS011;58179;48.776;9.124;2022-12-15T08:23:27;23.83;;;12.73;;
55913;SDS011;58179;48.776;9.124;2022-12-15T08:25:57;22.20;;;12.30;;
55913;SDS011;58179;48.776;9.124;2022-12-15T08:28:27;27.63;;;14.10;;
55913;SDS011;58179;48.776;9.124;2022-12-15T08:30:53;31.10;;;15.38;;
55913;SDS011;58179;48.776;9.124;2022-12-15T08:33:19;27.20;;;13.85;;
55913;SDS011;58179;48.776;9.124;2022-12-15T08:35:45;24.93;;;13.17;;
55913;SDS011;58179;48.776;9.124;2022-12-15T08:38:11;23.60;;;12.82;;
55913;SDS011;58179;48.776;9.124;2022-12-15T08:40:37;23.73;;;12.32;;
55913;SDS011;58179;48.776;9.124;2022-12-15T08:43:04;28.73;;;14.05;;
55913;SDS011;58179;48.776;9.124;2022-12-15T08:45:30;31.35;;;15.45;;
55913;SDS011;58179;48.776;9.124;2022-12-15T08:47:56;29.63;;;15.03;;
55913;SDS011;58179;48.776;9.124;2022-12-15T08:50:22;24.17;;;13.63;;
55913;SDS011;58179;48.776;9.124;2022-12-15T08:52:47;26.17;;;14.25;;
55913;SDS011;58179;48.776;9.124;2022-12-15T08:55:13;27.08;;;13.95;;
55913;SDS011;58179;48.776;9.124;2022-12-15T08:57:39;26.05;;;13.35;;
55913;SDS011;58179;48.776;9.124;2022-12-15T09:00:07;27.30;;;13.27;;
55913;SDS011;58179;48.776;9.124;2022-12-15T09:02:35;21.80;;;11.82;;
55913;SDS011;58179;48.776;9.124;2022-12-15T09:05:01;24.55;;;12.73;;
55913;SDS011;58179;48.776;9.124;2022-12-15T09:07:26;24.45;;;12.95;;
55913;SDS011;58179;48.776;9.124;2022-12-15T09:09:52;28.58;;;13.98;;
55913;SDS011;58179;48.776;9.124;2022-12-15T09:12:18;35.05;;;16.67;;
55913;SDS011;58179;48.776;9.124;2022-12-15T09:14:45;31.90;;;15.32;;
55913;SDS011;58179;48.776;9.124;2022-12-15T09:17:12;25.90;;;13.82;;
55913;SDS011;58179;48.776;9.124;2022-12-15T09:19:38;24.73;;;12.80;;
55913;SDS011;58179;48.776;9.124;2022-12-15T09:22:04;29.45;;;13.88;;
55913;SDS011;58179;48.776;9.124;2022-12-15T09:24:31;34.50;;;15.68;;
55913;SDS011;58179;48.776;9.124;2022-12-15T09:26:57;34.40;;;15.00;;
55913;SDS011;58179;48.776;9.124;2022-12-15T09:29:23;30.13;;;14.77;;
55913;SDS011;58179;48.776;9.124;2022-12-15T09:31:49;34.95;;;15.98;;
55913;SDS011;58179;48.776;9.124;2022-12-15T09:34:16;29.40;;;15.07;;
55913;SDS011;58179;48.776;9.124;2022-12-15T09:36:42;33.42;;;15.15;;
55913;SDS011;58179;48.776;9.124;2022-12-15T09:39:08;41.70;;;16.20;;
55913;SDS011;58179;48.776;9.124;2022-12-15T09:41:36;26.25;;;14.10;;
55913;SDS011;58179;48.776;9.124;2022-12-15T09:44:05;28.38;;;14.52;;
55913;SDS011;58179;48.776;9.124;2022-12-15T09:49:44;36.28;;;16.80;;
55913;SDS011;58179;48.776;9.124;2022-12-15T09:52:19;29.23;;;14.52;;
55913;SDS011;58179;48.776;9.124;2022-12-15T09:54:49;33.78;;;15.23;;
55913;SDS011;58179;48.776;9.124;2022-12-15T09:57:18;30.13;;;13.70;;
55913;SDS011;58179;48.776;9.124;2022-12-15T10:00:01;34.70;;;15.95;;
55913;SDS011;58179;48.776;9.124;2022-12-15T10:02:53;42.33;;;19.70;;
55913;SDS011;58179;48.776;9.124;2022-12-15T10:05:54;41.80;;;19.38;;
55913;SDS011;58179;48.776;9.124;2022-12-15T10:08:30;35.63;;;16.73;;
55913;SDS011;58179;48.776;9.124;2022-12-15T10:10:59;31.88;;;15.32;;
55913;SDS011;58179;48.776;9.124;2022-12-15T10:13:30;25.75;;;13.02;;
55913;SDS011;58179;48.776;9.124;2022-12-15T10:16:07;26.83;;;12.80;;
55913;SDS011;58179;48.776;9.124;2022-12-15T10:18:49;33.72;;;15.93;;
55913;SDS011;58179;48.776;9.124;2022-12-15T10:21:25;34.80;;;14.98;;
55913;SDS011;58179;48.776;9.124;2022-12-15T10:23:53;34.28;;;15.65;;
55913;SDS011;58179;48.776;9.124;2022-12-15T10:26:24;38.30;;;15.90;;
55913;SDS011;58179;48.776;9.124;2022-12-15T10:29:01;38.17;;;16.20;;
55913;SDS011;58179;48.776;9.124;2022-12-15T10:31:44;51.65;;;21.60;;
55913;SDS011;58179;48.776;9.124;2022-12-15T10:34:19;53.53;;;21.33;;
55913;SDS011;58179;48.776;9.124;2022-12-15T10:36:53;55.28;;;23.48;;
55913;SDS011;58179;48.776;9.124;2022-12-15T10:39:20;48.30;;;20.02;;
55913;SDS011;58179;48.776;9.124;2022-12-15T10:44:40;34.55;;;15.93;;
55913;SDS011;58179;48.776;9.124;2022-12-15T10:47:09;45.07;;;18.37;;
55913;SDS011;58179;48.776;9.124;2022-12-15T10:49:43;43.75;;;16.55;;
55913;SDS011;58179;48.776;9.124;2022-12-15T10:52:24;37.42;;;16.33;;
55913;SDS011;58179;48.776;9.124;2022-12-15T10:54:56;32.10;;;14.38;;
55913;SDS011;58179;48.776;9.124;2022-12-15T10:57:24;29.25;;;13.50;;
55913;SDS011;58179;48.776;9.124;2022-12-15T10:59:52;26.83;;;12.50;;
55913;SDS011;58179;48.776;9.124;2022-12-15T11:02:26;28.30;;;13.25;;
55913;SDS011;58179;48.776;9.124;2022-12-15T11:04:57;29.48;;;13.35;;
55913;SDS011;58179;48.776;9.124;2022-12-15T11:07:28;31.13;;;14.02;;
55913;SDS011;58179;48.776;9.124;2022-12-15T11:10:08;40.50;;;17.63;;
55913;SDS011;58179;48.776;9.124;2022-12-15T11:12:41;39.03;;;17.05;;
55913;SDS011;58179;48.776;9.124;2022-12-15T11:15:32;28.88;;;13.07;;
55913;SDS011;58179;48.776;9.124;2022-12-15T11:18:10;28.73;;;12.98;;
55913;SDS011;58179;48.776;9.124;2022-12-15T11:20:56;65.38;;;26.17;;
55913;SDS011;58179;48.776;9.124;2022-12-15T11:23:29;56.10;;;22.57;;
55913;SDS011;58179;48.776;9.124;2022-12-15T11:26:12;41.97;;;17.67;;
55913;SDS011;58179;48.776;9.124;2022-12-15T11:28:51;36.92;;;15.10;;
55913;SDS011;58179;48.776;9.124;2022-12-15T11:31:24;46.08;;;15.73;;
55913;SDS011;58179;48.776;9.124;2022-12-15T11:33:57;36.95;;;15.02;;
55913;SDS011;58179;48.776;9.124;2022-12-15T11:36:29;32.83;;;12.82;;
55913;SDS011;58179;48.776;9.124;2022-12-15T11:39:23;31.63;;;12.90;;
55913;SDS011;58179;48.776;9.124;2022-12-15T11:42:06;30.77;;;12.88;;
55913;SDS011;58179;48.776;9.124;2022-12-15T11:44:44;28.80;;;12.23;;
55913;SDS011;58179;48.776;9.124;2022-12-15T11:47:23;28.60;;;12.98;;
55913;SDS011;58179;48.776;9.124;2022-12-15T11:50:02;38.80;;;13.07;;
55913;SDS011;58179;48.776;9.124;2022-12-15T11:52:45;36.05;;;12.32;;
55913;SDS011;58179;48.776;9.124;2022-12-15T11:55:27;24.77;;;10.95;;
55913;SDS011;58179;48.776;9.124;2022-12-15T11:58:10;33.55;;;12.88;;
55913;SDS011;58179;48.776;9.124;2022-12-15T12:01:15;36.13;;;13.00;;
55913;SDS011;58179;48.776;9.124;2022-12-15T12:04:03;37.67;;;14.32;;
55913;SDS011;58179;48.776;9.124;2022-12-15T12:06:42;38.17;;;14.38;;
55913;SDS011;58179;48.776;9.124;2022-12-15T12:09:20;43.17;;;15.70;;
55913;SDS011;58179;48.776;9.124;2022-12-15T12:11:56;47.35;;;18.02;;
55913;SDS011;58179;48.776;9.124;2022-12-15T12:14:38;47.72;;;19.10;;
55913;SDS011;58179;48.776;9.124;2022-12-15T12:17:17;52.47;;;19.10;;
55913;SDS011;58179;48.776;9.124;2022-12-15T12:19:56;55.92;;;20.77;;
55913;SDS011;58179;48.776;9.124;2022-12-15T12:22:27;55.85;;;19.00;;
55913;SDS011;58179;48.776;9.124;2022-12-15T12:24:59;51.45;;;16.38;;
55913;SDS011;58179;48.776;9.124;2022-12-15T12:27:32;52.88;;;16.35;;
55913;SDS011;58179;48.776;9.124;2022-12-15T12:30:07;36.03;;;15.95;;
55913;SDS011;58179;48.776;9.124;2022-12-15T12:32:41;43.15;;;15.93;;
55913;SDS011;58179;48.776;9.124;2022-12-15T12:35:15;33.63;;;13.50;;
55913;SDS011;58179;48.776;9.124;2022-12-15T12:37:49;31.20;;;12.27;;
55913;SDS011;58179;48.776;9.124;2022-12-15T12:40:21;36.13;;;12.88;;
55913;SDS011;58179;48.776;9.124;2022-12-15T12:42:57;25.92;;;11.27;;
55913;SDS011;58179;48.776;9.124;2022-12-15T12:45:26;31.15;;;11.80;;
55913;SDS011;58179;48.776;9.124;2022-12-15T12:47:59;23.33;;;10.40;;
55913;SDS011;58179;48.776;9.124;2022-12-15T12:50:31;28.13;;;11.25;;
55913;SDS011;58179;48.776;9.124;2022-12-15T12:52:59;31.50;;;12.15;;
55913;SDS011;58179;48.776;9.124;2022-12-15T12:55:28;23.58;;;12.02;;
55913;SDS011;58179;48.776;9.124;2022-12-15T12:58:04;30.90;;;12.20;;
55913;SDS011;58179;48.776;9.124;2022-12-15T13:01:16;30.05;;;15.80;;
55913;SDS011;58179;48.776;9.124;2022-12-15T13:04:01;39.88;;;16.40;;
55913;SDS011;58179;48.776;9.124;2022-12-15T13:09:23;39.10;;;16.95;;
55913;SDS011;58179;48.776;9.124;2022-12-15T13:12:01;41.53;;;16.02;;
55913;SDS011;58179;48.776;9.124;2022-12-15T13:14:40;40.20;;;15.90;;
55913;SDS011;58179;48.776;9.124;2022-12-15T13:17:12;45.05;;;15.35;;
55913;SDS011;58179;48.776;9.124;2022-12-15T13:22:51;59.78;;;15.15;;
55913;SDS011;58179;48.776;9.124;2022-12-15T13:28:16;64.13;;;17.67;;
55913;SDS011;58179;48.776;9.124;2022-12-15T13:33:54;60.50;;;16.15;;
55913;SDS011;58179;48.776;9.124;2022-12-15T13:36:45;67.63;;;20.37;;
55913;SDS011;58179;48.776;9.124;2022-12-15T13:42:23;72.22;;;19.23;;
55913;SDS011;58179;48.776;9.124;2022-12-15T13:44:56;89.55;;;22.17;;
55913;SDS011;58179;48.776;9.124;2022-12-15T13:48:07;115.88;;;31.90;;
55913;SDS011;58179;48.776;9.124;2022-12-15T13:50:50;117.43;;;31.25;;
55913;SDS011;58179;48.776;9.124;2022-12-15T13:53:27;128.85;;;30.27;;
55913;SDS011;58179;48.776;9.124;2022-12-15T13:56:04;78.82;;;26.35;;
55913;SDS011;58179;48.776;9.124;2022-12-15T13:58:45;147.00;;;31.58;;
55913;SDS011;58179;48.776;9.124;2022-12-15T14:01:20;124.28;;;30.20;;
55913;SDS011;58179;48.776;9.124;2022-12-15T14:04:03;133.90;;;29.60;;
55913;SDS011;58179;48.776;9.124;2022-12-15T14:06:37;129.80;;;28.65;;
55913;SDS011;58179;48.776;9.124;2022-12-15T14:09:10;158.82;;;30.38;;
55913;SDS011;58179;48.776;9.124;2022-12-15T14:11:39;137.95;;;29.52;;
55913;SDS011;58179;48.776;9.124;2022-12-15T14:14:11;160.85;;;31.23;;
55913;SDS011;58179;48.776;9.124;2022-12-15T14:16:43;145.80;;;27.02;;
55913;SDS011;58179;48.776;9.124;2022-12-15T14:19:13;105.18;;;24.08;;
55913;SDS011;58179;48.776;9.124;2022-12-15T14:21:47;131.32;;;30.02;;
55913;SDS011;58179;48.776;9.124;2022-12-15T14:24:17;162.80;;;30.23;;
55913;SDS011;58179;48.776;9.124;2022-12-15T14:26:52;179.50;;;35.13;;
55913;SDS011;58179;48.776;9.124;2022-12-15T14:29:18;145.60;;;29.50;;
55913;SDS011;58179;48.776;9.124;2022-12-15T14:31:45;160.32;;;30.85;;
55913;SDS011;58179;48.776;9.124;2022-12-15T14:34:17;161.43;;;30.95;;
55913;SDS011;58179;48.776;9.124;2022-12-15T14:36:54;188.80;;;34.97;;
55913;SDS011;58179;48.776;9.124;2022-12-15T14:39:25;171.85;;;32.60;;
55913;SDS011;58179;48.776;9.124;2022-12-15T14:41:56;164.98;;;29.23;;
55913;SDS011;58179;48.776;9.124;2022-12-15T14:44:27;157.18;;;30.45;;
55913;SDS011;58179;48.776;9.124;2022-12-15T14:46:57;159.43;;;31.50;;
55913;SDS011;58179;48.776;9.124;2022-12-15T14:49:26;160.88;;;31.15;;
55913;SDS011;58179;48.776;9.124;2022-12-15T14:51:56;176.57;;;37.72;;
55913;SDS011;58179;48.776;9.124;2022-12-15T14:54:27;177.30;;;39.20;;
55913;SDS011;58179;48.776;9.124;2022-12-15T14:56:59;196.45;;;37.75;;
55913;SDS011;58179;48.776;9.124;2022-12-15T14:59:29;195.85;;;41.78;;
55913;SDS011;58179;48.776;9.124;2022-12-15T15:02:00;194.35;;;42.47;;
55913;SDS011;58179;48.776;9.124;2022-12-15T15:04:38;198.52;;;42.47;;
55913;SDS011;58179;48.776;9.124;2022-12-15T15:07:05;199.88;;;38.90;;
55913;SDS011;58179;48.776;9.124;2022-12-15T15:09:40;190.80;;;37.80;;
55913;SDS011;58179;48.776;9.124;2022-12-15T15:12:13;220.07;;;40.97;;
55913;SDS011;58179;48.776;9.124;2022-12-15T15:14:42;197.80;;;43.20;;
55913;SDS011;58179;48.776;9.124;2022-12-15T15:17:21;214.52;;;42.92;;
55913;SDS011;58179;48.776;9.124;2022-12-15T15:19:53;212.48;;;41.75;;